Terminal Aerodrome Forecast
Issued by NWS North Platte, NE

Current Version | Previous Version | Text Only | Print | Product List | Glossary On
Versions: 1 2 3 4 5 6 7 8 9 10 11 12 13 14 15 16 17 18 19 20
000
FTUS43 KLBF 031100
TAFLBF
TAF
KLBF 031120Z 0312/0412 31008KT P6SM OVC005
      TEMPO 0312/0314 5SM -SHSN OVC013
     FM031400 35024G35KT P6SM OVC020
     FM032100 35015G24KT P6SM SCT025 BKN120
     FM040000 36009KT P6SM OVC120 PROB30 0404/0408 4SM -SN OVC040=

USA.gov is the U.S. government's official web portal to all federal, state and local government web resources and services.